sensor_id;sensor_type;location;lat;lon;timestamp;pressure;altitude;pressure_sealevel;temperature;humidity
35910;BME280;22004;49.120;-0.200;2024-01-30T00:00:36;102369.78;;;13.79;92.09
35910;BME280;22004;49.120;-0.200;2024-01-30T00:03:01;102375.06;;;13.97;91.44
35910;BME280;22004;49.120;-0.200;2024-01-30T00:05:27;102372.28;;;13.73;92.21
35910;BME280;22004;49.120;-0.200;2024-01-30T00:07:52;102371.81;;;13.85;91.89
35910;BME280;22004;49.120;-0.200;2024-01-30T00:10:17;102374.28;;;13.70;92.14
35910;BME280;22004;49.120;-0.200;2024-01-30T00:12:43;102367.19;;;14.04;91.15
35910;BME280;22004;49.120;-0.200;2024-01-30T00:15:08;102366.75;;;13.82;91.75
35910;BME280;22004;49.120;-0.200;2024-01-30T00:17:38;102372.84;;;13.84;92.42
35910;BME280;22004;49.120;-0.200;2024-01-30T00:20:04;102371.28;;;13.74;92.01
35910;BME280;22004;49.120;-0.200;2024-01-30T00:22:34;102375.38;;;13.86;92.09
35910;BME280;22004;49.120;-0.200;2024-01-30T00:24:59;102382.50;;;13.95;90.91
35910;BME280;22004;49.120;-0.200;2024-01-30T00:27:25;102392.78;;;13.91;91.81
35910;BME280;22004;49.120;-0.200;2024-01-30T00:29:51;102399.44;;;14.13;90.17
35910;BME280;22004;49.120;-0.200;2024-01-30T00:32:16;102401.53;;;13.85;91.14
35910;BME280;22004;49.120;-0.200;2024-01-30T00:34:44;102415.22;;;13.92;91.43
35910;BME280;22004;49.120;-0.200;2024-01-30T00:37:09;102414.81;;;14.21;89.59
35910;BME280;22004;49.120;-0.200;2024-01-30T00:39:34;102408.66;;;14.45;87.51
35910;BME280;22004;49.120;-0.200;2024-01-30T00:42:00;102401.66;;;14.26;89.15
35910;BME280;22004;49.120;-0.200;2024-01-30T00:44:25;102399.81;;;14.27;88.80
35910;BME280;22004;49.120;-0.200;2024-01-30T00:46:50;102398.47;;;14.31;88.43
35910;BME280;22004;49.120;-0.200;2024-01-30T00:49:16;102400.97;;;14.16;90.02
35910;BME280;22004;49.120;-0.200;2024-01-30T00:51:41;102397.81;;;14.29;87.74
35910;BME280;22004;49.120;-0.200;2024-01-30T00:54:06;102399.31;;;14.31;87.79
35910;BME280;22004;49.120;-0.200;2024-01-30T00:56:32;102400.53;;;14.45;86.79
35910;BME280;22004;49.120;-0.200;2024-01-30T00:58:57;102411.06;;;14.48;86.22
35910;BME280;22004;49.120;-0.200;2024-01-30T01:01:22;102415.88;;;14.28;89.63
35910;BME280;22004;49.120;-0.200;2024-01-30T01:03:48;102411.66;;;14.42;88.59
35910;BME280;22004;49.120;-0.200;2024-01-30T01:06:13;102406.00;;;14.61;86.14
35910;BME280;22004;49.120;-0.200;2024-01-30T01:08:39;102412.94;;;14.47;88.08
35910;BME280;22004;49.120;-0.200;2024-01-30T01:11:04;102412.91;;;14.56;87.87
35910;BME280;22004;49.120;-0.200;2024-01-30T01:13:30;102413.97;;;14.79;84.14
35910;BME280;22004;49.120;-0.200;2024-01-30T01:15:55;102408.03;;;14.59;87.83
35910;BME280;22004;49.120;-0.200;2024-01-30T01:18:20;102398.59;;;14.63;86.28
35910;BME280;22004;49.120;-0.200;2024-01-30T01:20:46;102408.00;;;14.51;86.90
35910;BME280;22004;49.120;-0.200;2024-01-30T01:23:11;102405.56;;;14.32;89.63
35910;BME280;22004;49.120;-0.200;2024-01-30T01:25:36;102406.53;;;14.81;87.13
35910;BME280;22004;49.120;-0.200;2024-01-30T01:28:02;102408.69;;;14.61;86.96
35910;BME280;22004;49.120;-0.200;2024-01-30T01:30:28;102402.81;;;14.90;86.12
35910;BME280;22004;49.120;-0.200;2024-01-30T01:32:54;102398.25;;;14.58;87.38
35910;BME280;22004;49.120;-0.200;2024-01-30T01:35:26;102410.97;;;14.32;90.66
35910;BME280;22004;49.120;-0.200;2024-01-30T01:37:52;102406.00;;;14.53;89.05
35910;BME280;22004;49.120;-0.200;2024-01-30T01:40:22;102407.38;;;14.82;86.75
35910;BME280;22004;49.120;-0.200;2024-01-30T01:42:47;102417.19;;;14.99;82.52
35910;BME280;22004;49.120;-0.200;2024-01-30T01:45:13;102413.31;;;14.93;83.78
35910;BME280;22004;49.120;-0.200;2024-01-30T01:47:39;102425.13;;;14.84;87.39
35910;BME280;22004;49.120;-0.200;2024-01-30T01:50:04;102424.16;;;14.35;89.68
35910;BME280;22004;49.120;-0.200;2024-01-30T01:52:30;102415.50;;;14.73;88.32
35910;BME280;22004;49.120;-0.200;2024-01-30T01:54:55;102432.38;;;14.67;89.24
35910;BME280;22004;49.120;-0.200;2024-01-30T01:57:21;102434.78;;;14.36;91.34
35910;BME280;22004;49.120;-0.200;2024-01-30T01:59:47;102443.25;;;14.33;90.62
35910;BME280;22004;49.120;-0.200;2024-01-30T02:02:13;102441.75;;;14.39;91.61
35910;BME280;22004;49.120;-0.200;2024-01-30T02:04:41;102438.28;;;14.12;92.80
35910;BME280;22004;49.120;-0.200;2024-01-30T02:07:07;102433.50;;;14.06;92.90
35910;BME280;22004;49.120;-0.200;2024-01-30T02:09:32;102433.28;;;14.34;91.37
35910;BME280;22004;49.120;-0.200;2024-01-30T02:11:58;102433.47;;;14.32;92.28
35910;BME280;22004;49.120;-0.200;2024-01-30T02:14:23;102421.84;;;13.98;93.25
35910;BME280;22004;49.120;-0.200;2024-01-30T02:16:48;102434.44;;;14.31;92.74
35910;BME280;22004;49.120;-0.200;2024-01-30T02:19:13;102424.03;;;14.02;92.23
35910;BME280;22004;49.120;-0.200;2024-01-30T02:21:39;102420.66;;;14.00;93.96
35910;BME280;22004;49.120;-0.200;2024-01-30T02:24:05;102436.91;;;13.74;94.78
35910;BME280;22004;49.120;-0.200;2024-01-30T02:26:30;102439.63;;;13.82;94.96
35910;BME280;22004;49.120;-0.200;2024-01-30T02:28:56;102424.50;;;13.89;94.06
35910;BME280;22004;49.120;-0.200;2024-01-30T02:31:21;102437.91;;;13.73;95.69
35910;BME280;22004;49.120;-0.200;2024-01-30T02:33:46;102433.91;;;13.85;94.54
35910;BME280;22004;49.120;-0.200;2024-01-30T02:36:12;102437.75;;;14.17;91.49
35910;BME280;22004;49.120;-0.200;2024-01-30T02:38:37;102445.78;;;13.92;92.38
35910;BME280;22004;49.120;-0.200;2024-01-30T02:41:02;102439.72;;;13.64;95.36
35910;BME280;22004;49.120;-0.200;2024-01-30T02:43:28;102431.34;;;13.76;94.90
35910;BME280;22004;49.120;-0.200;2024-01-30T02:45:53;102447.72;;;14.08;93.12
35910;BME280;22004;49.120;-0.200;2024-01-30T02:48:18;102439.91;;;14.05;92.53
35910;BME280;22004;49.120;-0.200;2024-01-30T02:50:43;102444.97;;;14.00;92.54
35910;BME280;22004;49.120;-0.200;2024-01-30T02:53:09;102436.69;;;14.02;92.08
35910;BME280;22004;49.120;-0.200;2024-01-30T02:55:34;102427.31;;;13.80;93.40
35910;BME280;22004;49.120;-0.200;2024-01-30T02:58:00;102433.88;;;14.11;92.30
35910;BME280;22004;49.120;-0.200;2024-01-30T03:00:25;102430.38;;;13.85;92.68
35910;BME280;22004;49.120;-0.200;2024-01-30T03:02:51;102427.78;;;14.09;92.41
35910;BME280;22004;49.120;-0.200;2024-01-30T03:05:16;102428.81;;;13.82;92.46
35910;BME280;22004;49.120;-0.200;2024-01-30T03:07:41;102433.03;;;14.11;90.04
35910;BME280;22004;49.120;-0.200;2024-01-30T03:10:07;102423.13;;;13.85;91.91
35910;BME280;22004;49.120;-0.200;2024-01-30T03:12:32;102434.00;;;14.02;91.26
35910;BME280;22004;49.120;-0.200;2024-01-30T03:14:58;102427.59;;;13.68;93.83
35910;BME280;22004;49.120;-0.200;2024-01-30T03:17:23;102425.38;;;13.98;92.66
35910;BME280;22004;49.120;-0.200;2024-01-30T03:19:49;102430.19;;;13.78;92.37
35910;BME280;22004;49.120;-0.200;2024-01-30T03:22:15;102438.66;;;13.83;92.76
35910;BME280;22004;49.120;-0.200;2024-01-30T03:24:40;102443.16;;;14.09;91.01
35910;BME280;22004;49.120;-0.200;2024-01-30T03:27:05;102436.31;;;13.88;92.25
35910;BME280;22004;49.120;-0.200;2024-01-30T03:29:31;102445.56;;;14.20;90.60
35910;BME280;22004;49.120;-0.200;2024-01-30T03:31:56;102453.53;;;14.30;89.17
35910;BME280;22004;49.120;-0.200;2024-01-30T03:34:21;102454.72;;;14.27;90.60
35910;BME280;22004;49.120;-0.200;2024-01-30T03:36:47;102453.59;;;14.12;90.75
35910;BME280;22004;49.120;-0.200;2024-01-30T03:39:12;102465.06;;;14.06;91.92
35910;BME280;22004;49.120;-0.200;2024-01-30T03:41:37;102461.84;;;14.02;91.08
35910;BME280;22004;49.120;-0.200;2024-01-30T03:44:03;102475.16;;;13.95;91.24
35910;BME280;22004;49.120;-0.200;2024-01-30T03:46:28;102483.47;;;13.76;90.68
35910;BME280;22004;49.120;-0.200;2024-01-30T03:48:54;102489.84;;;14.01;89.11
35910;BME280;22004;49.120;-0.200;2024-01-30T03:51:19;102498.28;;;13.98;87.77
35910;BME280;22004;49.120;-0.200;2024-01-30T03:53:45;102494.03;;;13.95;87.21
35910;BME280;22004;49.120;-0.200;2024-01-30T03:56:13;102498.50;;;13.79;88.08
35910;BME280;22004;49.120;-0.200;2024-01-30T03:58:39;102493.50;;;13.92;87.31
35910;BME280;22004;49.120;-0.200;2024-01-30T04:01:04;102489.94;;;13.83;86.17
35910;BME280;22004;49.120;-0.200;2024-01-30T04:03:30;102496.41;;;13.47;88.88
35910;BME280;22004;49.120;-0.200;2024-01-30T04:05:55;102498.88;;;13.58;87.43
35910;BME280;22004;49.120;-0.200;2024-01-30T04:08:20;102496.97;;;13.50;87.58
35910;BME280;22004;49.120;-0.200;2024-01-30T04:10:46;102503.75;;;13.36;87.40
35910;BME280;22004;49.120;-0.200;2024-01-30T04:13:12;102505.34;;;13.65;87.00
35910;BME280;22004;49.120;-0.200;2024-01-30T04:15:37;102518.75;;;13.57;87.11
35910;BME280;22004;49.120;-0.200;2024-01-30T04:18:03;102522.84;;;13.61;85.71
35910;BME280;22004;49.120;-0.200;2024-01-30T04:20:29;102527.94;;;13.90;84.75
35910;BME280;22004;49.120;-0.200;2024-01-30T04:22:54;102531.03;;;13.51;86.26
35910;BME280;22004;49.120;-0.200;2024-01-30T04:25:20;102537.44;;;13.76;86.14
35910;BME280;22004;49.120;-0.200;2024-01-30T04:27:45;102522.56;;;13.72;85.31
35910;BME280;22004;49.120;-0.200;2024-01-30T04:30:11;102535.31;;;13.62;85.60
35910;BME280;22004;49.120;-0.200;2024-01-30T04:32:36;102540.22;;;13.40;86.67
35910;BME280;22004;49.120;-0.200;2024-01-30T04:35:03;102529.13;;;13.26;86.30
35910;BME280;22004;49.120;-0.200;2024-01-30T04:37:28;102531.56;;;13.55;85.24
35910;BME280;22004;49.120;-0.200;2024-01-30T04:39:54;102526.81;;;13.31;86.13
35910;BME280;22004;49.120;-0.200;2024-01-30T04:42:19;102533.44;;;13.80;83.84
35910;BME280;22004;49.120;-0.200;2024-01-30T04:44:44;102535.66;;;13.59;84.04
35910;BME280;22004;49.120;-0.200;2024-01-30T04:47:10;102536.66;;;14.10;83.40
35910;BME280;22004;49.120;-0.200;2024-01-30T04:49:38;102540.38;;;13.83;83.60
35910;BME280;22004;49.120;-0.200;2024-01-30T04:52:05;102542.56;;;13.61;83.83
35910;BME280;22004;49.120;-0.200;2024-01-30T04:54:31;102546.06;;;13.54;84.06
35910;BME280;22004;49.120;-0.200;2024-01-30T04:56:56;102550.84;;;13.86;83.18
35910;BME280;22004;49.120;-0.200;2024-01-30T04:59:21;102561.13;;;14.08;82.17
35910;BME280;22004;49.120;-0.200;2024-01-30T05:01:46;102562.28;;;14.06;82.09
35910;BME280;22004;49.120;-0.200;2024-01-30T05:04:12;102559.53;;;13.71;83.18
35910;BME280;22004;49.120;-0.200;2024-01-30T05:06:37;102571.94;;;14.08;82.68
35910;BME280;22004;49.120;-0.200;2024-01-30T05:09:03;102573.06;;;13.98;82.39
35910;BME280;22004;49.120;-0.200;2024-01-30T05:11:31;102584.97;;;14.13;82.43
35910;BME280;22004;49.120;-0.200;2024-01-30T05:13:56;102576.47;;;13.38;83.15
35910;BME280;22004;49.120;-0.200;2024-01-30T05:16:22;102584.72;;;13.80;82.61
35910;BME280;22004;49.120;-0.200;2024-01-30T05:18:47;102602.03;;;13.69;82.73
35910;BME280;22004;49.120;-0.200;2024-01-30T05:21:13;102591.59;;;13.92;82.37
35910;BME280;22004;49.120;-0.200;2024-01-30T05:23:38;102598.09;;;14.08;82.25
35910;BME280;22004;49.120;-0.200;2024-01-30T05:26:03;102600.84;;;13.90;82.52
35910;BME280;22004;49.120;-0.200;2024-01-30T05:28:29;102601.41;;;14.02;82.36
35910;BME280;22004;49.120;-0.200;2024-01-30T05:30:56;102593.19;;;13.85;82.97
35910;BME280;22004;49.120;-0.200;2024-01-30T05:33:21;102598.47;;;13.69;83.23
35910;BME280;22004;49.120;-0.200;2024-01-30T05:35:46;102612.97;;;13.50;83.15
35910;BME280;22004;49.120;-0.200;2024-01-30T05:38:12;102614.59;;;13.61;82.78
35910;BME280;22004;49.120;-0.200;2024-01-30T05:40:37;102614.78;;;14.03;81.57
35910;BME280;22004;49.120;-0.200;2024-01-30T05:43:03;102618.81;;;13.81;82.04
35910;BME280;22004;49.120;-0.200;2024-01-30T05:45:28;102623.16;;;14.18;81.62
35910;BME280;22004;49.120;-0.200;2024-01-30T05:47:54;102623.13;;;13.92;81.22
35910;BME280;22004;49.120;-0.200;2024-01-30T05:50:19;102628.84;;;13.89;81.56
35910;BME280;22004;49.120;-0.200;2024-01-30T05:52:45;102630.47;;;13.46;81.94
35910;BME280;22004;49.120;-0.200;2024-01-30T05:55:11;102633.81;;;13.58;81.91
35910;BME280;22004;49.120;-0.200;2024-01-30T05:57:37;102635.88;;;13.46;81.43
35910;BME280;22004;49.120;-0.200;2024-01-30T06:00:04;102636.19;;;13.79;80.76
35910;BME280;22004;49.120;-0.200;2024-01-30T06:02:30;102632.84;;;13.31;79.99
35910;BME280;22004;49.120;-0.200;2024-01-30T06:04:55;102647.28;;;13.93;79.99
35910;BME280;22004;49.120;-0.200;2024-01-30T06:07:21;102646.47;;;14.19;80.46
35910;BME280;22004;49.120;-0.200;2024-01-30T06:09:47;102655.13;;;14.31;78.74
35910;BME280;22004;49.120;-0.200;2024-01-30T06:12:12;102654.47;;;14.55;79.39
35910;BME280;22004;49.120;-0.200;2024-01-30T06:14:38;102655.69;;;14.60;77.96
35910;BME280;22004;49.120;-0.200;2024-01-30T06:17:03;102655.13;;;14.48;78.49
35910;BME280;22004;49.120;-0.200;2024-01-30T06:19:30;102662.59;;;14.11;79.62
35910;BME280;22004;49.120;-0.200;2024-01-30T06:21:55;102659.34;;;14.77;77.93
35910;BME280;22004;49.120;-0.200;2024-01-30T06:24:20;102657.66;;;14.06;80.11
35910;BME280;22004;49.120;-0.200;2024-01-30T06:26:45;102660.31;;;14.68;78.90
35910;BME280;22004;49.120;-0.200;2024-01-30T06:29:11;102661.09;;;14.34;76.61
35910;BME280;22004;49.120;-0.200;2024-01-30T06:31:40;102675.50;;;14.43;77.23
35910;BME280;22004;49.120;-0.200;2024-01-30T06:34:07;102681.09;;;14.23;80.05
35910;BME280;22004;49.120;-0.200;2024-01-30T06:36:32;102672.72;;;13.91;80.76
35910;BME280;22004;49.120;-0.200;2024-01-30T06:38:57;102667.50;;;13.54;81.78
35910;BME280;22004;49.120;-0.200;2024-01-30T06:41:22;102675.66;;;13.80;78.54
35910;BME280;22004;49.120;-0.200;2024-01-30T06:43:49;102668.97;;;12.93;79.42
35910;BME280;22004;49.120;-0.200;2024-01-30T06:46:14;102669.56;;;13.60;79.78
35910;BME280;22004;49.120;-0.200;2024-01-30T06:48:40;102667.53;;;12.52;79.44
35910;BME280;22004;49.120;-0.200;2024-01-30T06:51:05;102676.47;;;13.27;81.24
35910;BME280;22004;49.120;-0.200;2024-01-30T06:53:31;102681.91;;;13.62;78.95
35910;BME280;22004;49.120;-0.200;2024-01-30T06:55:57;102683.28;;;12.93;79.53
35910;BME280;22004;49.120;-0.200;2024-01-30T06:58:22;102689.56;;;13.22;80.79
35910;BME280;22004;49.120;-0.200;2024-01-30T07:00:47;102697.41;;;13.05;79.03
35910;BME280;22004;49.120;-0.200;2024-01-30T07:03:13;102693.47;;;13.55;79.06
35910;BME280;22004;49.120;-0.200;2024-01-30T07:05:38;102700.06;;;13.25;78.50
35910;BME280;22004;49.120;-0.200;2024-01-30T07:08:03;102700.41;;;13.57;79.99
35910;BME280;22004;49.120;-0.200;2024-01-30T07:10:29;102702.28;;;12.92;81.28
35910;BME280;22004;49.120;-0.200;2024-01-30T07:12:54;102712.13;;;13.48;81.03
35910;BME280;22004;49.120;-0.200;2024-01-30T07:15:19;102714.78;;;13.93;79.72
35910;BME280;22004;49.120;-0.200;2024-01-30T07:17:45;102712.31;;;13.37;78.34
35910;BME280;22004;49.120;-0.200;2024-01-30T07:20:11;102716.06;;;13.71;79.51
35910;BME280;22004;49.120;-0.200;2024-01-30T07:22:36;102716.59;;;13.39;79.34
35910;BME280;22004;49.120;-0.200;2024-01-30T07:25:02;102721.81;;;13.41;79.16
35910;BME280;22004;49.120;-0.200;2024-01-30T07:27:27;102726.34;;;13.68;78.54
35910;BME280;22004;49.120;-0.200;2024-01-30T18:28:15;103187.13;;;14.53;74.39
35910;BME280;22004;49.120;-0.200;2024-01-30T18:30:40;103192.09;;;14.58;74.58
35910;BME280;22004;49.120;-0.200;2024-01-30T18:33:06;103196.53;;;14.49;74.67
35910;BME280;22004;49.120;-0.200;2024-01-30T18:35:31;103196.78;;;14.46;74.89
35910;BME280;22004;49.120;-0.200;2024-01-30T18:37:58;103204.03;;;14.45;74.94
35910;BME280;22004;49.120;-0.200;2024-01-30T18:40:23;103203.63;;;14.50;74.87
35910;BME280;22004;49.120;-0.200;2024-01-30T18:42:49;103211.56;;;14.42;75.29
35910;BME280;22004;49.120;-0.200;2024-01-30T18:45:14;103212.31;;;14.44;75.11
35910;BME280;22004;49.120;-0.200;2024-01-30T18:47:40;103207.59;;;14.46;75.01
35910;BME280;22004;49.120;-0.200;2024-01-30T18:50:06;103213.31;;;14.43;75.14
35910;BME280;22004;49.120;-0.200;2024-01-30T18:52:31;103212.88;;;14.38;75.21
35910;BME280;22004;49.120;-0.200;2024-01-30T18:54:56;103217.31;;;14.19;75.76
35910;BME280;22004;49.120;-0.200;2024-01-30T18:57:22;103212.78;;;14.20;73.66
35910;BME280;22004;49.120;-0.200;2024-01-30T18:59:47;103218.00;;;14.31;75.22
35910;BME280;22004;49.120;-0.200;2024-01-30T19:02:12;103213.75;;;14.29;74.68
35910;BME280;22004;49.120;-0.200;2024-01-30T19:04:39;103223.84;;;14.27;74.57
35910;BME280;22004;49.120;-0.200;2024-01-30T19:07:04;103234.53;;;14.28;75.51
35910;BME280;22004;49.120;-0.200;2024-01-30T19:09:29;103227.28;;;14.29;75.31
35910;BME280;22004;49.120;-0.200;2024-01-30T19:11:55;103223.72;;;14.28;75.38
35910;BME280;22004;49.120;-0.200;2024-01-30T19:14:20;103229.41;;;14.25;75.24
35910;BME280;22004;49.120;-0.200;2024-01-30T19:16:46;103227.84;;;14.22;75.14
35910;BME280;22004;49.120;-0.200;2024-01-30T19:19:12;103228.97;;;14.20;74.93
35910;BME280;22004;49.120;-0.200;2024-01-30T19:21:37;103226.97;;;14.22;75.26
35910;BME280;22004;49.120;-0.200;2024-01-30T19:24:03;103237.66;;;14.23;75.14
35910;BME280;22004;49.120;-0.200;2024-01-30T19:26:29;103242.06;;;14.25;75.40
35910;BME280;22004;49.120;-0.200;2024-01-30T19:28:55;103241.22;;;14.24;75.27
35910;BME280;22004;49.120;-0.200;2024-01-30T19:31:20;103242.22;;;14.23;75.29
35910;BME280;22004;49.120;-0.200;2024-01-30T19:33:45;103243.06;;;14.23;75.22
35910;BME280;22004;49.120;-0.200;2024-01-30T19:36:11;103238.78;;;14.21;75.54
35910;BME280;22004;49.120;-0.200;2024-01-30T19:38:36;103243.34;;;14.20;75.27
35910;BME280;22004;49.120;-0.200;2024-01-30T19:41:02;103237.22;;;14.18;75.40
35910;BME280;22004;49.120;-0.200;2024-01-30T19:43:27;103242.91;;;14.25;75.13
35910;BME280;22004;49.120;-0.200;2024-01-30T19:45:53;103241.22;;;14.24;75.08
35910;BME280;22004;49.120;-0.200;2024-01-30T19:48:18;103250.59;;;14.20;75.06
35910;BME280;22004;49.120;-0.200;2024-01-30T19:50:44;103246.88;;;14.21;75.36
35910;BME280;22004;49.120;-0.200;2024-01-30T19:53:09;103258.97;;;14.17;75.05
35910;BME280;22004;49.120;-0.200;2024-01-30T19:55:35;103255.56;;;14.15;75.28
35910;BME280;22004;49.120;-0.200;2024-01-30T19:58:00;103241.06;;;14.16;75.33
35910;BME280;22004;49.120;-0.200;2024-01-30T20:00:29;103247.75;;;14.12;75.47
35910;BME280;22004;49.120;-0.200;2024-01-30T20:02:55;103246.19;;;14.09;75.35
35910;BME280;22004;49.120;-0.200;2024-01-30T20:05:20;103243.91;;;14.14;75.24
35910;BME280;22004;49.120;-0.200;2024-01-30T20:07:46;103242.75;;;14.17;75.39
35910;BME280;22004;49.120;-0.200;2024-01-30T20:10:11;103232.69;;;14.19;74.95
35910;BME280;22004;49.120;-0.200;2024-01-30T20:12:38;103243.91;;;14.24;74.90
35910;BME280;22004;49.120;-0.200;2024-01-30T20:15:04;103247.19;;;14.28;74.88
35910;BME280;22004;49.120;-0.200;2024-01-30T20:17:29;103251.75;;;14.27;74.77
35910;BME280;22004;49.120;-0.200;2024-01-30T20:19:57;103252.28;;;14.31;74.89
35910;BME280;22004;49.120;-0.200;2024-01-30T20:22:22;103254.88;;;14.32;74.93
35910;BME280;22004;49.120;-0.200;2024-01-30T20:24:48;103256.41;;;14.35;74.92
35910;BME280;22004;49.120;-0.200;2024-01-30T20:27:14;103263.66;;;14.34;74.74
35910;BME280;22004;49.120;-0.200;2024-01-30T20:29:39;103275.59;;;14.41;74.50
35910;BME280;22004;49.120;-0.200;2024-01-30T20:32:05;103273.88;;;14.40;73.84
35910;BME280;22004;49.120;-0.200;2024-01-30T20:34:30;103272.47;;;14.36;74.28
35910;BME280;22004;49.120;-0.200;2024-01-30T20:36:55;103288.69;;;14.36;74.30
35910;BME280;22004;49.120;-0.200;2024-01-30T20:39:21;103289.09;;;14.41;74.12
35910;BME280;22004;49.120;-0.200;2024-01-30T20:41:46;103297.09;;;14.43;74.46
35910;BME280;22004;49.120;-0.200;2024-01-30T20:44:13;103302.78;;;14.40;74.26
35910;BME280;22004;49.120;-0.200;2024-01-30T20:46:40;103305.03;;;14.44;74.24
35910;BME280;22004;49.120;-0.200;2024-01-30T20:49:06;103312.47;;;14.42;73.91
35910;BME280;22004;49.120;-0.200;2024-01-30T20:51:31;103318.56;;;14.44;74.09
35910;BME280;22004;49.120;-0.200;2024-01-30T20:53:56;103323.25;;;14.42;74.03
35910;BME280;22004;49.120;-0.200;2024-01-30T20:56:21;103324.66;;;14.46;74.03
35910;BME280;22004;49.120;-0.200;2024-01-30T20:58:47;103312.16;;;14.45;73.86
35910;BME280;22004;49.120;-0.200;2024-01-30T21:01:12;103320.41;;;14.44;73.72
35910;BME280;22004;49.120;-0.200;2024-01-30T21:03:38;103312.72;;;14.39;74.08
35910;BME280;22004;49.120;-0.200;2024-01-30T21:06:04;103317.88;;;14.42;73.60
35910;BME280;22004;49.120;-0.200;2024-01-30T21:08:31;103318.84;;;14.32;70.79
35910;BME280;22004;49.120;-0.200;2024-01-30T21:10:57;103323.13;;;14.34;73.71
35910;BME280;22004;49.120;-0.200;2024-01-30T21:13:24;103318.84;;;14.32;71.63
35910;BME280;22004;49.120;-0.200;2024-01-30T21:15:49;103331.50;;;14.41;73.20
35910;BME280;22004;49.120;-0.200;2024-01-30T21:18:15;103329.53;;;14.33;73.36
35910;BME280;22004;49.120;-0.200;2024-01-30T21:20:40;103336.09;;;14.50;73.20
35910;BME280;22004;49.120;-0.200;2024-01-30T21:23:05;103335.81;;;14.53;73.49
35910;BME280;22004;49.120;-0.200;2024-01-30T21:25:31;103333.72;;;13.78;71.44
35910;BME280;22004;49.120;-0.200;2024-01-30T21:27:56;103336.63;;;14.34;72.38
35910;BME280;22004;49.120;-0.200;2024-01-30T21:30:21;103342.50;;;14.49;72.85
35910;BME280;22004;49.120;-0.200;2024-01-30T21:32:47;103332.22;;;14.43;73.29
35910;BME280;22004;49.120;-0.200;2024-01-30T21:35:12;103340.19;;;14.25;73.51
35910;BME280;22004;49.120;-0.200;2024-01-30T21:37:37;103348.41;;;13.94;73.12
35910;BME280;22004;49.120;-0.200;2024-01-30T21:40:03;103343.84;;;13.95;71.72
35910;BME280;22004;49.120;-0.200;2024-01-30T21:42:29;103341.41;;;13.92;73.09
35910;BME280;22004;49.120;-0.200;2024-01-30T21:44:55;103339.59;;;14.12;74.15
35910;BME280;22004;49.120;-0.200;2024-01-30T21:47:24;103348.00;;;14.09;74.01
35910;BME280;22004;49.120;-0.200;2024-01-30T21:49:49;103340.81;;;13.69;73.12
35910;BME280;22004;49.120;-0.200;2024-01-30T21:52:15;103337.38;;;13.27;73.01
35910;BME280;22004;49.120;-0.200;2024-01-30T21:54:41;103338.78;;;13.61;75.06
35910;BME280;22004;49.120;-0.200;2024-01-30T21:57:06;103335.44;;;13.79;74.71
35910;BME280;22004;49.120;-0.200;2024-01-30T21:59:32;103333.88;;;13.95;72.94
35910;BME280;22004;49.120;-0.200;2024-01-30T22:01:57;103341.44;;;14.02;73.99
35910;BME280;22004;49.120;-0.200;2024-01-30T22:04:23;103337.88;;;14.01;74.13
35910;BME280;22004;49.120;-0.200;2024-01-30T22:06:49;103344.00;;;14.03;74.32
35910;BME280;22004;49.120;-0.200;2024-01-30T22:09:15;103353.22;;;14.01;74.36
35910;BME280;22004;49.120;-0.200;2024-01-30T22:11:40;103348.41;;;13.94;74.10
35910;BME280;22004;49.120;-0.200;2024-01-30T22:14:06;103347.41;;;13.95;74.24
35910;BME280;22004;49.120;-0.200;2024-01-30T22:16:31;103351.94;;;13.95;74.66
35910;BME280;22004;49.120;-0.200;2024-01-30T22:18:57;103351.34;;;13.91;74.65
35910;BME280;22004;49.120;-0.200;2024-01-30T22:21:22;103344.44;;;13.99;74.35
35910;BME280;22004;49.120;-0.200;2024-01-30T22:23:48;103344.97;;;14.02;74.12
35910;BME280;22004;49.120;-0.200;2024-01-30T22:26:14;103348.09;;;13.88;74.61
35910;BME280;22004;49.120;-0.200;2024-01-30T22:28:40;103356.06;;;13.89;74.42
35910;BME280;22004;49.120;-0.200;2024-01-30T22:31:05;103346.38;;;13.87;74.89
35910;BME280;22004;49.120;-0.200;2024-01-30T22:33:31;103354.91;;;13.92;74.58
35910;BME280;22004;49.120;-0.200;2024-01-30T22:35:56;103351.09;;;13.94;74.24
35910;BME280;22004;49.120;-0.200;2024-01-30T22:38:22;103351.91;;;13.85;74.30
35910;BME280;22004;49.120;-0.200;2024-01-30T22:40:47;103348.97;;;13.98;74.03
35910;BME280;22004;49.120;-0.200;2024-01-30T22:43:12;103342.56;;;13.89;74.55
35910;BME280;22004;49.120;-0.200;2024-01-30T22:45:38;103350.22;;;13.84;74.36
35910;BME280;22004;49.120;-0.200;2024-01-30T22:48:03;103352.91;;;13.84;74.46
35910;BME280;22004;49.120;-0.200;2024-01-30T22:50:29;103348.53;;;13.83;74.76
35910;BME280;22004;49.120;-0.200;2024-01-30T22:52:54;103345.38;;;13.78;74.77
35910;BME280;22004;49.120;-0.200;2024-01-30T22:55:19;103344.09;;;13.73;74.55
35910;BME280;22004;49.120;-0.200;2024-01-30T22:57:45;103350.47;;;13.71;74.69
35910;BME280;22004;49.120;-0.200;2024-01-30T23:00:11;103356.59;;;13.74;74.97
35910;BME280;22004;49.120;-0.200;2024-01-30T23:02:39;103352.44;;;13.69;74.87
35910;BME280;22004;49.120;-0.200;2024-01-30T23:05:05;103360.56;;;13.69;74.88
35910;BME280;22004;49.120;-0.200;2024-01-30T23:07:30;103368.91;;;13.66;74.87
35910;BME280;22004;49.120;-0.200;2024-01-30T23:09:56;103370.34;;;13.70;74.66
35910;BME280;22004;49.120;-0.200;2024-01-30T23:12:21;103363.25;;;13.69;74.92
